sensor_id;sensor_type;location;lat;lon;timestamp;temperature;humidity
2282;DHT22;27486;48.77806476;9.16920056;2022-11-02T00:00:14;11.70;99.90
2282;DHT22;27486;48.77806476;9.16920056;2022-11-02T00:02:58;11.70;99.90
2282;DHT22;27486;48.77806476;9.16920056;2022-11-02T00:05:41;11.70;99.90
2282;DHT22;27486;48.77806476;9.16920056;2022-11-02T00:08:26;11.60;99.90
2282;DHT22;27486;48.77806476;9.16920056;2022-11-02T00:11:10;11.80;99.90
2282;DHT22;27486;48.77806476;9.16920056;2022-11-02T00:13:54;11.70;99.90
2282;DHT22;27486;48.77806476;9.16920056;2022-11-02T00:16:38;11.80;99.90
2282;DHT22;27486;48.77806476;9.16920056;2022-11-02T00:19:23;11.80;99.90
2282;DHT22;27486;48.77806476;9.16920056;2022-11-02T00:22:07;11.80;99.90
2282;DHT22;27486;48.77806476;9.16920056;2022-11-02T00:24:51;11.90;99.90
2282;DHT22;27486;48.77806476;9.16920056;2022-11-02T00:27:35;11.80;99.90
2282;DHT22;27486;48.77806476;9.16920056;2022-11-02T00:30:19;11.80;99.90
2282;DHT22;27486;48.77806476;9.16920056;2022-11-02T00:33:03;11.80;99.90
2282;DHT22;27486;48.77806476;9.16920056;2022-11-02T00:35:47;11.90;99.90
2282;DHT22;27486;48.77806476;9.16920056;2022-11-02T00:38:31;11.90;99.90
2282;DHT22;27486;48.77806476;9.16920056;2022-11-02T00:41:18;11.90;99.90
2282;DHT22;27486;48.77806476;9.16920056;2022-11-02T00:44:02;11.90;99.90
2282;DHT22;27486;48.77806476;9.16920056;2022-11-02T00:46:46;11.90;99.80
2282;DHT22;27486;48.77806476;9.16920056;2022-11-02T00:49:31;11.90;99.70
2282;DHT22;27486;48.77806476;9.16920056;2022-11-02T00:52:15;11.90;99.80
2282;DHT22;27486;48.77806476;9.16920056;2022-11-02T00:54:59;11.90;99.80
2282;DHT22;27486;48.77806476;9.16920056;2022-11-02T00:57:43;11.90;99.80
2282;DHT22;27486;48.77806476;9.16920056;2022-11-02T01:00:27;12.10;99.50
2282;DHT22;27486;48.77806476;9.16920056;2022-11-02T01:03:11;12.10;99.40
2282;DHT22;27486;48.77806476;9.16920056;2022-11-02T01:05:55;12.10;99.20
2282;DHT22;27486;48.77806476;9.16920056;2022-11-02T01:08:40;12.10;99.20
2282;DHT22;27486;48.77806476;9.16920056;2022-11-02T01:11:24;12.10;99.20
2282;DHT22;27486;48.77806476;9.16920056;2022-11-02T01:14:09;12.20;99.20
2282;DHT22;27486;48.77806476;9.16920056;2022-11-02T01:16:53;12.10;99.10
2282;DHT22;27486;48.77806476;9.16920056;2022-11-02T01:19:37;12.20;99.40
2282;DHT22;27486;48.77806476;9.16920056;2022-11-02T01:22:21;12.20;99.00
2282;DHT22;27486;48.77806476;9.16920056;2022-11-02T01:25:05;12.30;99.00
2282;DHT22;27486;48.77806476;9.16920056;2022-11-02T01:27:51;12.20;98.90
2282;DHT22;27486;48.77806476;9.16920056;2022-11-02T01:30:37;12.20;99.20
2282;DHT22;27486;48.77806476;9.16920056;2022-11-02T01:33:21;12.20;99.10
2282;DHT22;27486;48.77806476;9.16920056;2022-11-02T01:36:05;12.30;99.10
2282;DHT22;27486;48.77806476;9.16920056;2022-11-02T01:38:49;12.40;99.00
2282;DHT22;27486;48.77806476;9.16920056;2022-11-02T01:41:33;12.40;98.90
2282;DHT22;27486;48.77806476;9.16920056;2022-11-02T01:44:32;12.50;98.60
2282;DHT22;27486;48.77806476;9.16920056;2022-11-02T01:47:27;12.50;98.60
2282;DHT22;27486;48.77806476;9.16920056;2022-11-02T01:50:22;12.50;98.40
2282;DHT22;27486;48.77806476;9.16920056;2022-11-02T01:53:08;12.60;98.40
2282;DHT22;27486;48.77806476;9.16920056;2022-11-02T01:55:53;12.60;98.40
2282;DHT22;27486;48.77806476;9.16920056;2022-11-02T01:58:37;12.60;98.30
2282;DHT22;27486;48.77806476;9.16920056;2022-11-02T02:01:22;12.60;98.30
2282;DHT22;27486;48.77806476;9.16920056;2022-11-02T02:04:07;12.60;98.30
2282;DHT22;27486;48.77806476;9.16920056;2022-11-02T02:06:55;12.70;98.20
2282;DHT22;27486;48.77806476;9.16920056;2022-11-02T02:09:40;12.70;98.40
2282;DHT22;27486;48.77806476;9.16920056;2022-11-02T02:12:24;12.60;98.20
2282;DHT22;27486;48.77806476;9.16920056;2022-11-02T02:15:09;12.60;98.20
2282;DHT22;27486;48.77806476;9.16920056;2022-11-02T02:18:01;12.60;98.30
2282;DHT22;27486;48.77806476;9.16920056;2022-11-02T02:21:11;12.60;98.30
2282;DHT22;27486;48.77806476;9.16920056;2022-11-02T02:27:20;12.70;98.30
2282;DHT22;27486;48.77806476;9.16920056;2022-11-02T02:30:08;12.70;98.30
2282;DHT22;27486;48.77806476;9.16920056;2022-11-02T02:33:27;12.80;98.10
2282;DHT22;27486;48.77806476;9.16920056;2022-11-02T02:36:20;12.80;98.10
2282;DHT22;27486;48.77806476;9.16920056;2022-11-02T02:39:22;12.80;98.10
2282;DHT22;27486;48.77806476;9.16920056;2022-11-02T02:45:05;12.80;98.10
2282;DHT22;27486;48.77806476;9.16920056;2022-11-02T02:47:59;12.80;97.90
2282;DHT22;27486;48.77806476;9.16920056;2022-11-02T02:50:49;12.80;98.00
2282;DHT22;27486;48.77806476;9.16920056;2022-11-02T02:53:47;12.70;98.10
2282;DHT22;27486;48.77806476;9.16920056;2022-11-02T02:56:40;12.70;98.00
2282;DHT22;27486;48.77806476;9.16920056;2022-11-02T02:59:31;12.80;97.90
2282;DHT22;27486;48.77806476;9.16920056;2022-11-02T03:02:23;12.80;97.80
2282;DHT22;27486;48.77806476;9.16920056;2022-11-02T03:05:25;12.80;97.90
2282;DHT22;27486;48.77806476;9.16920056;2022-11-02T03:08:12;12.80;97.90
2282;DHT22;27486;48.77806476;9.16920056;2022-11-02T03:11:07;12.70;97.90
2282;DHT22;27486;48.77806476;9.16920056;2022-11-02T03:14:17;12.70;98.10
2282;DHT22;27486;48.77806476;9.16920056;2022-11-02T03:17:16;12.80;98.10
2282;DHT22;27486;48.77806476;9.16920056;2022-11-02T03:23:51;12.80;97.90
2282;DHT22;27486;48.77806476;9.16920056;2022-11-02T03:27:01;12.80;98.00
2282;DHT22;27486;48.77806476;9.16920056;2022-11-02T03:30:08;12.80;97.80
2282;DHT22;27486;48.77806476;9.16920056;2022-11-02T03:33:34;12.90;97.80
2282;DHT22;27486;48.77806476;9.16920056;2022-11-02T03:36:32;12.90;97.70
2282;DHT22;27486;48.77806476;9.16920056;2022-11-02T03:39:21;12.90;97.70
2282;DHT22;27486;48.77806476;9.16920056;2022-11-02T03:42:10;12.90;97.70
2282;DHT22;27486;48.77806476;9.16920056;2022-11-02T03:45:08;12.90;97.50
2282;DHT22;27486;48.77806476;9.16920056;2022-11-02T03:47:58;12.90;97.50
2282;DHT22;27486;48.77806476;9.16920056;2022-11-02T03:50:49;13.00;97.30
2282;DHT22;27486;48.77806476;9.16920056;2022-11-02T03:53:50;13.00;97.20
2282;DHT22;27486;48.77806476;9.16920056;2022-11-02T03:56:46;13.00;97.30
2282;DHT22;27486;48.77806476;9.16920056;2022-11-02T03:59:31;13.10;96.80
2282;DHT22;27486;48.77806476;9.16920056;2022-11-02T04:02:16;13.10;96.70
2282;DHT22;27486;48.77806476;9.16920056;2022-11-02T04:05:01;13.10;96.80
2282;DHT22;27486;48.77806476;9.16920056;2022-11-02T04:07:49;13.10;96.60
2282;DHT22;27486;48.77806476;9.16920056;2022-11-02T04:10:53;13.10;96.50
2282;DHT22;27486;48.77806476;9.16920056;2022-11-02T04:14:16;13.10;96.40
2282;DHT22;27486;48.77806476;9.16920056;2022-11-02T04:17:18;13.10;96.30
2282;DHT22;27486;48.77806476;9.16920056;2022-11-02T04:20:21;13.00;96.20
2282;DHT22;27486;48.77806476;9.16920056;2022-11-02T04:23:05;13.00;96.30
2282;DHT22;27486;48.77806476;9.16920056;2022-11-02T04:26:08;13.00;96.20
2282;DHT22;27486;48.77806476;9.16920056;2022-11-02T04:28:53;13.00;96.10
2282;DHT22;27486;48.77806476;9.16920056;2022-11-02T04:31:37;13.00;96.10
2282;DHT22;27486;48.77806476;9.16920056;2022-11-02T04:34:21;12.90;96.20
2282;DHT22;27486;48.77806476;9.16920056;2022-11-02T04:37:05;12.90;96.10
2282;DHT22;27486;48.77806476;9.16920056;2022-11-02T04:40:10;12.90;96.10
2282;DHT22;27486;48.77806476;9.16920056;2022-11-02T04:42:54;12.90;96.10
2282;DHT22;27486;48.77806476;9.16920056;2022-11-02T04:45:39;12.80;96.10
2282;DHT22;27486;48.77806476;9.16920056;2022-11-02T04:48:23;12.80;96.30
2282;DHT22;27486;48.77806476;9.16920056;2022-11-02T04:51:07;12.70;96.40
2282;DHT22;27486;48.77806476;9.16920056;2022-11-02T04:53:52;12.70;96.60
2282;DHT22;27486;48.77806476;9.16920056;2022-11-02T04:56:36;12.60;96.40
2282;DHT22;27486;48.77806476;9.16920056;2022-11-02T04:59:21;12.60;96.40
2282;DHT22;27486;48.77806476;9.16920056;2022-11-02T05:02:05;12.60;96.50
2282;DHT22;27486;48.77806476;9.16920056;2022-11-02T05:04:49;12.60;96.50
2282;DHT22;27486;48.77806476;9.16920056;2022-11-02T05:07:33;12.60;96.40
2282;DHT22;27486;48.77806476;9.16920056;2022-11-02T05:10:17;12.50;96.40
2282;DHT22;27486;48.77806476;9.16920056;2022-11-02T05:13:01;12.50;96.50
2282;DHT22;27486;48.77806476;9.16920056;2022-11-02T05:15:45;12.50;96.60
2282;DHT22;27486;48.77806476;9.16920056;2022-11-02T05:18:29;12.40;96.60
2282;DHT22;27486;48.77806476;9.16920056;2022-11-02T05:21:13;12.40;96.80
2282;DHT22;27486;48.77806476;9.16920056;2022-11-02T05:23:57;12.40;96.70
2282;DHT22;27486;48.77806476;9.16920056;2022-11-02T05:26:41;12.40;96.70
2282;DHT22;27486;48.77806476;9.16920056;2022-11-02T05:29:26;12.40;96.80
2282;DHT22;27486;48.77806476;9.16920056;2022-11-02T05:32:10;12.30;96.90
2282;DHT22;27486;48.77806476;9.16920056;2022-11-02T05:34:54;12.20;97.00
2282;DHT22;27486;48.77806476;9.16920056;2022-11-02T05:37:38;12.30;97.00
2282;DHT22;27486;48.77806476;9.16920056;2022-11-02T05:40:22;12.30;97.10
2282;DHT22;27486;48.77806476;9.16920056;2022-11-02T05:43:09;12.20;97.10
2282;DHT22;27486;48.77806476;9.16920056;2022-11-02T05:46:00;12.20;97.10
2282;DHT22;27486;48.77806476;9.16920056;2022-11-02T05:48:44;12.30;97.10
2282;DHT22;27486;48.77806476;9.16920056;2022-11-02T05:51:28;12.30;97.00
2282;DHT22;27486;48.77806476;9.16920056;2022-11-02T05:54:12;12.30;97.00
2282;DHT22;27486;48.77806476;9.16920056;2022-11-02T05:56:56;12.30;96.90
2282;DHT22;27486;48.77806476;9.16920056;2022-11-02T05:59:40;12.40;96.80
2282;DHT22;27486;48.77806476;9.16920056;2022-11-02T06:02:24;12.40;96.70
2282;DHT22;27486;48.77806476;9.16920056;2022-11-02T06:05:08;12.30;96.90
2282;DHT22;27486;48.77806476;9.16920056;2022-11-02T06:07:56;12.30;96.80
2282;DHT22;27486;48.77806476;9.16920056;2022-11-02T06:10:40;12.30;96.80
2282;DHT22;27486;48.77806476;9.16920056;2022-11-02T06:13:26;12.20;96.90
2282;DHT22;27486;48.77806476;9.16920056;2022-11-02T06:16:11;12.30;96.80
2282;DHT22;27486;48.77806476;9.16920056;2022-11-02T06:18:55;12.30;96.80
2282;DHT22;27486;48.77806476;9.16920056;2022-11-02T06:21:39;12.30;96.80
2282;DHT22;27486;48.77806476;9.16920056;2022-11-02T06:24:23;12.30;96.90
2282;DHT22;27486;48.77806476;9.16920056;2022-11-02T06:27:07;12.30;97.10
2282;DHT22;27486;48.77806476;9.16920056;2022-11-02T06:29:51;12.30;97.00
2282;DHT22;27486;48.77806476;9.16920056;2022-11-02T06:32:35;12.30;96.90
2282;DHT22;27486;48.77806476;9.16920056;2022-11-02T06:35:20;12.40;96.70
2282;DHT22;27486;48.77806476;9.16920056;2022-11-02T06:38:05;12.50;96.70
2282;DHT22;27486;48.77806476;9.16920056;2022-11-02T06:40:55;12.60;96.50
2282;DHT22;27486;48.77806476;9.16920056;2022-11-02T06:43:40;12.70;96.40
2282;DHT22;27486;48.77806476;9.16920056;2022-11-02T06:46:24;12.80;96.10
2282;DHT22;27486;48.77806476;9.16920056;2022-11-02T06:49:08;13.00;96.10
2282;DHT22;27486;48.77806476;9.16920056;2022-11-02T06:51:52;13.20;96.00
2282;DHT22;27486;48.77806476;9.16920056;2022-11-02T06:54:36;13.40;95.60
2282;DHT22;27486;48.77806476;9.16920056;2022-11-02T06:57:21;13.60;95.30
2282;DHT22;27486;48.77806476;9.16920056;2022-11-02T07:00:07;13.80;95.10
2282;DHT22;27486;48.77806476;9.16920056;2022-11-02T07:03:06;13.90;94.60
2282;DHT22;27486;48.77806476;9.16920056;2022-11-02T07:05:52;14.00;94.30
2282;DHT22;27486;48.77806476;9.16920056;2022-11-02T07:08:36;14.10;94.10
2282;DHT22;27486;48.77806476;9.16920056;2022-11-02T07:11:21;14.10;94.10
2282;DHT22;27486;48.77806476;9.16920056;2022-11-02T07:14:05;14.10;94.00
2282;DHT22;27486;48.77806476;9.16920056;2022-11-02T07:16:49;14.20;94.00
2282;DHT22;27486;48.77806476;9.16920056;2022-11-02T07:19:34;14.20;93.80
2282;DHT22;27486;48.77806476;9.16920056;2022-11-02T07:22:18;14.30;93.80
2282;DHT22;27486;48.77806476;9.16920056;2022-11-02T07:25:02;14.30;93.80
2282;DHT22;27486;48.77806476;9.16920056;2022-11-02T07:27:47;14.50;93.70
2282;DHT22;27486;48.77806476;9.16920056;2022-11-02T07:30:33;14.70;93.30
2282;DHT22;27486;48.77806476;9.16920056;2022-11-02T07:33:17;14.80;93.10
2282;DHT22;27486;48.77806476;9.16920056;2022-11-02T07:36:02;14.90;92.70
2282;DHT22;27486;48.77806476;9.16920056;2022-11-02T07:38:47;14.90;92.50
2282;DHT22;27486;48.77806476;9.16920056;2022-11-02T07:41:31;15.00;92.40
2282;DHT22;27486;48.77806476;9.16920056;2022-11-02T07:44:15;15.30;92.40
2282;DHT22;27486;48.77806476;9.16920056;2022-11-02T07:46:59;15.50;91.80
2282;DHT22;27486;48.77806476;9.16920056;2022-11-02T07:49:44;15.60;91.40
2282;DHT22;27486;48.77806476;9.16920056;2022-11-02T07:52:28;15.70;91.20
2282;DHT22;27486;48.77806476;9.16920056;2022-11-02T07:55:13;15.90;90.90
2282;DHT22;27486;48.77806476;9.16920056;2022-11-02T07:57:59;15.90;90.40
2282;DHT22;27486;48.77806476;9.16920056;2022-11-02T08:00:44;15.90;90.30
2282;DHT22;27486;48.77806476;9.16920056;2022-11-02T08:03:28;16.10;90.20
2282;DHT22;27486;48.77806476;9.16920056;2022-11-02T08:06:13;16.20;89.30
2282;DHT22;27486;48.77806476;9.16920056;2022-11-02T08:08:59;16.20;90.00
2282;DHT22;27486;48.77806476;9.16920056;2022-11-02T08:11:43;16.40;89.10
2282;DHT22;27486;48.77806476;9.16920056;2022-11-02T08:14:27;16.50;88.40
2282;DHT22;27486;48.77806476;9.16920056;2022-11-02T08:17:11;16.40;88.30
2282;DHT22;27486;48.77806476;9.16920056;2022-11-02T08:19:55;16.50;87.70
2282;DHT22;27486;48.77806476;9.16920056;2022-11-02T08:22:39;16.50;88.20
2282;DHT22;27486;48.77806476;9.16920056;2022-11-02T08:25:24;16.70;86.60
2282;DHT22;27486;48.77806476;9.16920056;2022-11-02T08:28:13;16.70;87.00
2282;DHT22;27486;48.77806476;9.16920056;2022-11-02T08:30:58;16.80;86.60
2282;DHT22;27486;48.77806476;9.16920056;2022-11-02T08:33:43;16.80;86.30
2282;DHT22;27486;48.77806476;9.16920056;2022-11-02T08:36:27;16.90;86.70
2282;DHT22;27486;48.77806476;9.16920056;2022-11-02T08:39:11;17.00;85.10
2282;DHT22;27486;48.77806476;9.16920056;2022-11-02T08:41:56;16.90;85.30
2282;DHT22;27486;48.77806476;9.16920056;2022-11-02T08:44:40;17.00;85.30
2282;DHT22;27486;48.77806476;9.16920056;2022-11-02T08:47:23;17.10;85.20
2282;DHT22;27486;48.77806476;9.16920056;2022-11-02T08:50:09;17.20;85.10
2282;DHT22;27486;48.77806476;9.16920056;2022-11-02T08:52:54;17.30;83.90
2282;DHT22;27486;48.77806476;9.16920056;2022-11-02T08:55:38;17.40;84.30
2282;DHT22;27486;48.77806476;9.16920056;2022-11-02T08:58:22;17.50;83.50
2282;DHT22;27486;48.77806476;9.16920056;2022-11-02T09:01:06;17.50;83.50
2282;DHT22;27486;48.77806476;9.16920056;2022-11-02T09:03:50;17.40;82.60
2282;DHT22;27486;48.77806476;9.16920056;2022-11-02T09:06:34;17.50;83.30
2282;DHT22;27486;48.77806476;9.16920056;2022-11-02T09:09:18;17.60;83.00
2282;DHT22;27486;48.77806476;9.16920056;2022-11-02T09:12:02;17.50;82.60
2282;DHT22;27486;48.77806476;9.16920056;2022-11-02T09:14:46;17.50;83.00
2282;DHT22;27486;48.77806476;9.16920056;2022-11-02T09:17:30;17.70;82.70
2282;DHT22;27486;48.77806476;9.16920056;2022-11-02T09:20:18;17.80;81.80
2282;DHT22;27486;48.77806476;9.16920056;2022-11-02T09:23:02;17.80;81.70
2282;DHT22;27486;48.77806476;9.16920056;2022-11-02T09:25:48;17.80;81.90
2282;DHT22;27486;48.77806476;9.16920056;2022-11-02T09:28:32;18.00;81.90
2282;DHT22;27486;48.77806476;9.16920056;2022-11-02T09:31:16;18.10;80.30
2282;DHT22;27486;48.77806476;9.16920056;2022-11-02T09:34:00;18.20;80.40
2282;DHT22;27486;48.77806476;9.16920056;2022-11-02T09:36:44;18.40;80.00
2282;DHT22;27486;48.77806476;9.16920056;2022-11-02T09:39:28;18.30;77.50
2282;DHT22;27486;48.77806476;9.16920056;2022-11-02T09:42:25;18.30;76.50
2282;DHT22;27486;48.77806476;9.16920056;2022-11-02T09:45:16;18.30;77.10
2282;DHT22;27486;48.77806476;9.16920056;2022-11-02T09:48:13;18.40;76.10
2282;DHT22;27486;48.77806476;9.16920056;2022-11-02T09:51:35;18.40;75.20
2282;DHT22;27486;48.77806476;9.16920056;2022-11-02T09:57:25;18.70;74.20
2282;DHT22;27486;48.77806476;9.16920056;2022-11-02T10:00:14;18.50;73.40
2282;DHT22;27486;48.77806476;9.16920056;2022-11-02T10:03:16;18.40;72.40
2282;DHT22;27486;48.77806476;9.16920056;2022-11-02T10:06:10;18.10;72.80
2282;DHT22;27486;48.77806476;9.16920056;2022-11-02T10:09:11;18.20;72.10
2282;DHT22;27486;48.77806476;9.16920056;2022-11-02T10:12:03;17.90;73.40
2282;DHT22;27486;48.77806476;9.16920056;2022-11-02T10:15:02;18.00;73.00
2282;DHT22;27486;48.77806476;9.16920056;2022-11-02T10:17:50;18.10;71.70
2282;DHT22;27486;48.77806476;9.16920056;2022-11-02T10:20:38;18.30;72.70
2282;DHT22;27486;48.77806476;9.16920056;2022-11-02T10:23:38;18.50;70.20
2282;DHT22;27486;48.77806476;9.16920056;2022-11-02T10:26:27;18.40;69.80
2282;DHT22;27486;48.77806476;9.16920056;2022-11-02T10:29:17;18.40;69.00
2282;DHT22;27486;48.77806476;9.16920056;2022-11-02T10:32:02;18.40;68.00
2282;DHT22;27486;48.77806476;9.16920056;2022-11-02T10:34:46;18.40;67.30
2282;DHT22;27486;48.77806476;9.16920056;2022-11-02T10:41:01;18.40;67.90
2282;DHT22;27486;48.77806476;9.16920056;2022-11-02T10:47:02;18.00;68.70
2282;DHT22;27486;48.77806476;9.16920056;2022-11-02T10:50:13;17.90;68.10
2282;DHT22;27486;48.77806476;9.16920056;2022-11-02T10:53:01;17.60;68.60
2282;DHT22;27486;48.77806476;9.16920056;2022-11-02T10:58:35;17.50;69.40
2282;DHT22;27486;48.77806476;9.16920056;2022-11-02T11:01:22;17.50;69.40
2282;DHT22;27486;48.77806476;9.16920056;2022-11-02T11:04:20;17.40;69.60
2282;DHT22;27486;48.77806476;9.16920056;2022-11-02T11:07:12;17.40;69.80
2282;DHT22;27486;48.77806476;9.16920056;2022-11-02T11:09:57;17.50;70.10
2282;DHT22;27486;48.77806476;9.16920056;2022-11-02T11:12:42;17.60;70.10
2282;DHT22;27486;48.77806476;9.16920056;2022-11-02T11:15:29;17.80;69.40
2282;DHT22;27486;48.77806476;9.16920056;2022-11-02T11:18:18;17.80;68.60
2282;DHT22;27486;48.77806476;9.16920056;2022-11-02T11:21:03;17.60;69.30
2282;DHT22;27486;48.77806476;9.16920056;2022-11-02T11:23:47;17.40;69.20
2282;DHT22;27486;48.77806476;9.16920056;2022-11-02T11:26:31;17.30;69.80
2282;DHT22;27486;48.77806476;9.16920056;2022-11-02T11:29:21;17.20;70.30
2282;DHT22;27486;48.77806476;9.16920056;2022-11-02T11:32:17;17.20;69.90
2282;DHT22;27486;48.77806476;9.16920056;2022-11-02T11:35:05;17.00;70.50
2282;DHT22;27486;48.77806476;9.16920056;2022-11-02T11:38:17;16.90;70.80
2282;DHT22;27486;48.77806476;9.16920056;2022-11-02T11:41:02;16.70;71.20
2282;DHT22;27486;48.77806476;9.16920056;2022-11-02T11:43:47;16.60;71.70
2282;DHT22;27486;48.77806476;9.16920056;2022-11-02T11:46:41;16.60;72.00
2282;DHT22;27486;48.77806476;9.16920056;2022-11-02T11:49:29;16.60;71.90
2282;DHT22;27486;48.77806476;9.16920056;2022-11-02T11:52:19;16.60;71.90
2282;DHT22;27486;48.77806476;9.16920056;2022-11-02T11:55:26;16.60;70.70
2282;DHT22;27486;48.77806476;9.16920056;2022-11-02T11:58:21;16.60;71.90
2282;DHT22;27486;48.77806476;9.16920056;2022-11-02T12:03:59;16.60;70.70
2282;DHT22;27486;48.77806476;9.16920056;2022-11-02T12:15:50;16.50;67.60
2282;DHT22;27486;48.77806476;9.16920056;2022-11-02T12:19:06;16.60;67.40
2282;DHT22;27486;48.77806476;9.16920056;2022-11-02T12:25:29;16.70;65.80
2282;DHT22;27486;48.77806476;9.16920056;2022-11-02T12:31:27;16.80;64.40
2282;DHT22;27486;48.77806476;9.16920056;2022-11-02T12:43:47;16.80;62.40
2282;DHT22;27486;48.77806476;9.16920056;2022-11-02T12:50:20;16.60;62.40
2282;DHT22;27486;48.77806476;9.16920056;2022-11-02T12:53:10;16.70;62.00
2282;DHT22;27486;48.77806476;9.16920056;2022-11-02T12:56:00;16.70;60.80
2282;DHT22;27486;48.77806476;9.16920056;2022-11-02T12:58:45;16.80;61.20
2282;DHT22;27486;48.77806476;9.16920056;2022-11-02T13:01:34;16.70;59.50
2282;DHT22;27486;48.77806476;9.16920056;2022-11-02T13:04:25;16.60;60.10
2282;DHT22;27486;48.77806476;9.16920056;2022-11-02T13:07:13;16.70;60.20
2282;DHT22;27486;48.77806476;9.16920056;2022-11-02T13:10:03;16.70;60.10
2282;DHT22;27486;48.77806476;9.16920056;2022-11-02T13:12:50;16.70;60.80
2282;DHT22;27486;48.77806476;9.16920056;2022-11-02T13:15:37;16.70;61.00
2282;DHT22;27486;48.77806476;9.16920056;2022-11-02T13:18:34;16.70;61.00
2282;DHT22;27486;48.77806476;9.16920056;2022-11-02T13:21:35;16.80;60.60
2282;DHT22;27486;48.77806476;9.16920056;2022-11-02T13:24:22;16.80;60.50
2282;DHT22;27486;48.77806476;9.16920056;2022-11-02T13:27:23;16.80;60.00
2282;DHT22;27486;48.77806476;9.16920056;2022-11-02T13:30:14;16.70;60.60
2282;DHT22;27486;48.77806476;9.16920056;2022-11-02T13:33:01;16.60;60.70
2282;DHT22;27486;48.77806476;9.16920056;2022-11-02T13:35:46;16.60;60.70
2282;DHT22;27486;48.77806476;9.16920056;2022-11-02T13:38:41;16.60;60.70
2282;DHT22;27486;48.77806476;9.16920056;2022-11-02T13:41:55;16.60;60.60
2282;DHT22;27486;48.77806476;9.16920056;2022-11-02T13:50:58;16.60;60.60
2282;DHT22;27486;48.77806476;9.16920056;2022-11-02T13:53:53;16.60;60.00
2282;DHT22;27486;48.77806476;9.16920056;2022-11-02T13:56:39;16.70;59.70
2282;DHT22;27486;48.77806476;9.16920056;2022-11-02T13:59:33;16.80;59.80
2282;DHT22;27486;48.77806476;9.16920056;2022-11-02T14:02:21;16.70;59.50
2282;DHT22;27486;48.77806476;9.16920056;2022-11-02T14:05:06;16.80;59.90
2282;DHT22;27486;48.77806476;9.16920056;2022-11-02T14:07:51;16.90;63.20
2282;DHT22;27486;48.77806476;9.16920056;2022-11-02T14:10:38;16.80;64.70
2282;DHT22;27486;48.77806476;9.16920056;2022-11-02T14:14:04;16.80;65.10
2282;DHT22;27486;48.77806476;9.16920056;2022-11-02T14:22:23;16.60;67.40
2282;DHT22;27486;48.77806476;9.16920056;2022-11-02T14:25:13;16.60;67.70
2282;DHT22;27486;48.77806476;9.16920056;2022-11-02T14:37:57;16.50;68.70
2282;DHT22;27486;48.77806476;9.16920056;2022-11-02T14:47:06;16.60;68.90
2282;DHT22;27486;48.77806476;9.16920056;2022-11-02T14:49:54;16.50;68.40
2282;DHT22;27486;48.77806476;9.16920056;2022-11-02T14:52:41;16.50;68.20
2282;DHT22;27486;48.77806476;9.16920056;2022-11-02T14:55:36;16.50;68.40
2282;DHT22;27486;48.77806476;9.16920056;2022-11-02T14:58:27;16.50;68.30
2282;DHT22;27486;48.77806476;9.16920056;2022-11-02T15:01:13;16.50;68.30
2282;DHT22;27486;48.77806476;9.16920056;2022-11-02T15:04:05;16.60;68.70
2282;DHT22;27486;48.77806476;9.16920056;2022-11-02T15:06:53;16.70;69.10
2282;DHT22;27486;48.77806476;9.16920056;2022-11-02T15:10:00;16.70;68.50
2282;DHT22;27486;48.77806476;9.16920056;2022-11-02T15:12:46;16.70;68.50
2282;DHT22;27486;48.77806476;9.16920056;2022-11-02T15:15:35;16.60;68.10
2282;DHT22;27486;48.77806476;9.16920056;2022-11-02T15:18:34;16.60;68.60
2282;DHT22;27486;48.77806476;9.16920056;2022-11-02T15:24:13;16.60;67.80
2282;DHT22;27486;48.77806476;9.16920056;2022-11-02T15:27:01;16.60;67.70
2282;DHT22;27486;48.77806476;9.16920056;2022-11-02T15:29:47;16.50;68.20
2282;DHT22;27486;48.77806476;9.16920056;2022-11-02T15:32:37;16.40;68.70
2282;DHT22;27486;48.77806476;9.16920056;2022-11-02T15:35:25;16.30;69.80
2282;DHT22;27486;48.77806476;9.16920056;2022-11-02T15:38:13;16.30;69.30
2282;DHT22;27486;48.77806476;9.16920056;2022-11-02T15:41:17;16.20;69.20
2282;DHT22;27486;48.77806476;9.16920056;2022-11-02T15:50:47;15.90;70.00
2282;DHT22;27486;48.77806476;9.16920056;2022-11-02T15:53:45;15.80;70.60
2282;DHT22;27486;48.77806476;9.16920056;2022-11-02T15:56:52;15.70;70.90
2282;DHT22;27486;48.77806476;9.16920056;2022-11-02T15:59:58;15.60;71.30
2282;DHT22;27486;48.77806476;9.16920056;2022-11-02T16:02:47;15.50;71.70
2282;DHT22;27486;48.77806476;9.16920056;2022-11-02T16:05:45;15.40;72.20
2282;DHT22;27486;48.77806476;9.16920056;2022-11-02T16:08:32;15.30;72.50
2282;DHT22;27486;48.77806476;9.16920056;2022-11-02T16:11:18;15.20;72.90
2282;DHT22;27486;48.77806476;9.16920056;2022-11-02T16:14:17;15.10;73.40
2282;DHT22;27486;48.77806476;9.16920056;2022-11-02T16:17:01;14.90;74.40
2282;DHT22;27486;48.77806476;9.16920056;2022-11-02T16:19:45;14.80;75.10
2282;DHT22;27486;48.77806476;9.16920056;2022-11-02T16:22:30;14.70;76.00
2282;DHT22;27486;48.77806476;9.16920056;2022-11-02T16:25:19;14.60;76.70
2282;DHT22;27486;48.77806476;9.16920056;2022-11-02T16:36:46;14.40;79.70
2282;DHT22;27486;48.77806476;9.16920056;2022-11-02T16:39:32;14.30;80.30
2282;DHT22;27486;48.77806476;9.16920056;2022-11-02T16:42:23;14.20;81.30
2282;DHT22;27486;48.77806476;9.16920056;2022-11-02T16:45:29;14.10;81.50
2282;DHT22;27486;48.77806476;9.16920056;2022-11-02T16:48:19;14.00;82.20
2282;DHT22;27486;48.77806476;9.16920056;2022-11-02T16:51:16;13.90;83.20
2282;DHT22;27486;48.77806476;9.16920056;2022-11-02T16:54:37;13.90;84.10
2282;DHT22;27486;48.77806476;9.16920056;2022-11-02T16:57:30;13.80;84.80
2282;DHT22;27486;48.77806476;9.16920056;2022-11-02T17:00:19;13.70;85.90
2282;DHT22;27486;48.77806476;9.16920056;2022-11-02T17:03:08;13.70;86.50
2282;DHT22;27486;48.77806476;9.16920056;2022-11-02T17:05:53;13.60;86.90
2282;DHT22;27486;48.77806476;9.16920056;2022-11-02T17:08:40;13.60;87.30
2282;DHT22;27486;48.77806476;9.16920056;2022-11-02T17:11:24;13.50;87.80
2282;DHT22;27486;48.77806476;9.16920056;2022-11-02T17:14:09;13.50;88.20